Andover, New York
Current Conditions -  °F | °C
As of 5:33 PM on Wednesday 22 Oct 2014 (Local Time) from KELZ Reporting Station
Light Rain Light Rain  
Wind Chill: 36°   Ceiling: 100
Heat Index: 41°   Visibility: 2mi
Dew Point: 39°   Wind: 8mph
Humidity: 93%   Direction: 360°N
Pressure: 30.15"   Gusts: 20mph
Location:  42.16°N, 77.8°W
Report Text: KELZ 222133Z AUTO 36007G17KT 2SM -RA BR OVC001 05/04 A3015 RMK AO2 RAB13 P0000 T00500039
Loading
Personal Weather Stations






























Interactive Weather Map
Tropical Storm Tracking
New forecast layout! Learn more

10-Day Weather Forecast

Advertisements
Track Severe Weather on mobile